sensor_id;sensor_type;location;lat;lon;timestamp;P1;durP1;ratioP1;P2;durP2;ratioP2
18046;SDS011;9148;51.454;13.862;2022-11-15T00:00:51;17.40;;;11.00;;
18046;SDS011;9148;51.454;13.862;2022-11-15T00:03:17;20.70;;;12.17;;
18046;SDS011;9148;51.454;13.862;2022-11-15T00:05:51;18.60;;;11.60;;
18046;SDS011;9148;51.454;13.862;2022-11-15T00:08:17;12.27;;;9.77;;
18046;SDS011;9148;51.454;13.862;2022-11-15T00:10:53;15.03;;;9.90;;
18046;SDS011;9148;51.454;13.862;2022-11-15T00:13:23;14.10;;;9.90;;
18046;SDS011;9148;51.454;13.862;2022-11-15T00:15:49;15.30;;;11.47;;
18046;SDS011;9148;51.454;13.862;2022-11-15T00:18:15;17.23;;;11.33;;
18046;SDS011;9148;51.454;13.862;2022-11-15T00:20:41;19.33;;;12.03;;
18046;SDS011;9148;51.454;13.862;2022-11-15T00:23:08;17.47;;;12.60;;
18046;SDS011;9148;51.454;13.862;2022-11-15T00:25:33;17.60;;;11.60;;
18046;SDS011;9148;51.454;13.862;2022-11-15T00:27:59;18.77;;;11.13;;
18046;SDS011;9148;51.454;13.862;2022-11-15T00:30:26;23.40;;;12.20;;
18046;SDS011;9148;51.454;13.862;2022-11-15T00:32:52;15.60;;;9.97;;
18046;SDS011;9148;51.454;13.862;2022-11-15T00:35:18;18.03;;;11.13;;
18046;SDS011;9148;51.454;13.862;2022-11-15T00:37:45;17.90;;;12.13;;
18046;SDS011;9148;51.454;13.862;2022-11-15T00:40:12;16.17;;;11.63;;
18046;SDS011;9148;51.454;13.862;2022-11-15T00:42:38;19.37;;;12.07;;
18046;SDS011;9148;51.454;13.862;2022-11-15T00:45:04;23.90;;;14.77;;
18046;SDS011;9148;51.454;13.862;2022-11-15T00:47:30;18.97;;;11.50;;
18046;SDS011;9148;51.454;13.862;2022-11-15T00:49:56;14.50;;;9.90;;
18046;SDS011;9148;51.454;13.862;2022-11-15T00:52:22;16.87;;;11.43;;
18046;SDS011;9148;51.454;13.862;2022-11-15T00:54:48;15.60;;;11.23;;
18046;SDS011;9148;51.454;13.862;2022-11-15T00:57:14;16.50;;;13.67;;
18046;SDS011;9148;51.454;13.862;2022-11-15T00:59:39;14.80;;;11.50;;
18046;SDS011;9148;51.454;13.862;2022-11-15T01:02:05;18.00;;;11.07;;
18046;SDS011;9148;51.454;13.862;2022-11-15T01:04:30;16.83;;;10.80;;
18046;SDS011;9148;51.454;13.862;2022-11-15T01:06:56;15.83;;;11.10;;
18046;SDS011;9148;51.454;13.862;2022-11-15T01:09:22;25.47;;;13.67;;
18046;SDS011;9148;51.454;13.862;2022-11-15T01:11:47;22.20;;;11.40;;
18046;SDS011;9148;51.454;13.862;2022-11-15T01:14:13;11.83;;;10.43;;
18046;SDS011;9148;51.454;13.862;2022-11-15T01:16:39;20.00;;;12.63;;
18046;SDS011;9148;51.454;13.862;2022-11-15T01:19:04;20.93;;;11.40;;
18046;SDS011;9148;51.454;13.862;2022-11-15T01:21:30;16.23;;;11.60;;
18046;SDS011;9148;51.454;13.862;2022-11-15T01:23:56;15.53;;;11.87;;
18046;SDS011;9148;51.454;13.862;2022-11-15T01:26:22;17.77;;;11.30;;
18046;SDS011;9148;51.454;13.862;2022-11-15T01:28:49;15.53;;;12.63;;
18046;SDS011;9148;51.454;13.862;2022-11-15T01:31:15;18.10;;;11.67;;
18046;SDS011;9148;51.454;13.862;2022-11-15T01:33:44;20.07;;;12.27;;
18046;SDS011;9148;51.454;13.862;2022-11-15T01:36:16;18.20;;;10.93;;
18046;SDS011;9148;51.454;13.862;2022-11-15T01:38:58;12.97;;;11.20;;
18046;SDS011;9148;51.454;13.862;2022-11-15T01:41:28;22.33;;;11.53;;
18046;SDS011;9148;51.454;13.862;2022-11-15T01:44:25;19.90;;;11.90;;
18046;SDS011;9148;51.454;13.862;2022-11-15T01:47:21;16.13;;;11.13;;
18046;SDS011;9148;51.454;13.862;2022-11-15T01:50:02;15.40;;;12.27;;
18046;SDS011;9148;51.454;13.862;2022-11-15T01:52:35;17.07;;;11.77;;
18046;SDS011;9148;51.454;13.862;2022-11-15T01:55:16;19.17;;;12.27;;
18046;SDS011;9148;51.454;13.862;2022-11-15T01:57:47;17.83;;;12.70;;
18046;SDS011;9148;51.454;13.862;2022-11-15T02:00:17;17.30;;;11.00;;
18046;SDS011;9148;51.454;13.862;2022-11-15T02:02:43;18.30;;;11.80;;
18046;SDS011;9148;51.454;13.862;2022-11-15T02:05:09;16.30;;;11.40;;
18046;SDS011;9148;51.454;13.862;2022-11-15T02:07:35;14.63;;;10.63;;
18046;SDS011;9148;51.454;13.862;2022-11-15T02:10:04;14.10;;;12.13;;
18046;SDS011;9148;51.454;13.862;2022-11-15T02:12:43;19.23;;;12.30;;
18046;SDS011;9148;51.454;13.862;2022-11-15T02:15:10;18.13;;;12.17;;
18046;SDS011;9148;51.454;13.862;2022-11-15T02:17:58;13.57;;;11.50;;
18046;SDS011;9148;51.454;13.862;2022-11-15T02:23:53;16.70;;;12.53;;
18046;SDS011;9148;51.454;13.862;2022-11-15T02:32:33;14.43;;;10.07;;
18046;SDS011;9148;51.454;13.862;2022-11-15T02:40:57;15.93;;;12.60;;
18046;SDS011;9148;51.454;13.862;2022-11-15T02:46:41;25.47;;;11.70;;
18046;SDS011;9148;51.454;13.862;2022-11-15T02:49:35;17.27;;;12.87;;
18046;SDS011;9148;51.454;13.862;2022-11-15T02:52:02;16.83;;;10.87;;
18046;SDS011;9148;51.454;13.862;2022-11-15T02:54:32;18.30;;;12.10;;
18046;SDS011;9148;51.454;13.862;2022-11-15T02:57:03;14.53;;;10.63;;
18046;SDS011;9148;51.454;13.862;2022-11-15T02:59:39;17.33;;;12.93;;
18046;SDS011;9148;51.454;13.862;2022-11-15T03:02:18;19.37;;;12.37;;
18046;SDS011;9148;51.454;13.862;2022-11-15T03:05:14;19.70;;;13.27;;
18046;SDS011;9148;51.454;13.862;2022-11-15T03:10:40;20.30;;;11.20;;
18046;SDS011;9148;51.454;13.862;2022-11-15T03:13:33;17.27;;;12.70;;
18046;SDS011;9148;51.454;13.862;2022-11-15T03:18:56;15.77;;;11.07;;
18046;SDS011;9148;51.454;13.862;2022-11-15T03:21:39;17.00;;;11.87;;
18046;SDS011;9148;51.454;13.862;2022-11-15T03:24:06;16.07;;;11.97;;
18046;SDS011;9148;51.454;13.862;2022-11-15T03:26:33;19.93;;;10.37;;
18046;SDS011;9148;51.454;13.862;2022-11-15T03:29:04;16.33;;;10.87;;
18046;SDS011;9148;51.454;13.862;2022-11-15T03:31:38;20.30;;;12.33;;
18046;SDS011;9148;51.454;13.862;2022-11-15T03:34:21;14.00;;;9.93;;
18046;SDS011;9148;51.454;13.862;2022-11-15T03:37:00;17.03;;;12.60;;
18046;SDS011;9148;51.454;13.862;2022-11-15T03:39:26;19.00;;;12.83;;
18046;SDS011;9148;51.454;13.862;2022-11-15T03:41:58;16.27;;;12.17;;
18046;SDS011;9148;51.454;13.862;2022-11-15T03:44:50;22.17;;;13.03;;
18046;SDS011;9148;51.454;13.862;2022-11-15T03:47:34;16.47;;;12.60;;
18046;SDS011;9148;51.454;13.862;2022-11-15T03:50:13;13.30;;;10.20;;
18046;SDS011;9148;51.454;13.862;2022-11-15T03:52:43;17.93;;;12.13;;
18046;SDS011;9148;51.454;13.862;2022-11-15T03:55:13;17.27;;;10.67;;
18046;SDS011;9148;51.454;13.862;2022-11-15T03:57:43;22.87;;;12.90;;
18046;SDS011;9148;51.454;13.862;2022-11-15T04:00:09;17.37;;;11.57;;
18046;SDS011;9148;51.454;13.862;2022-11-15T04:02:36;17.77;;;10.97;;
18046;SDS011;9148;51.454;13.862;2022-11-15T04:05:01;16.77;;;10.80;;
18046;SDS011;9148;51.454;13.862;2022-11-15T04:07:28;16.47;;;10.83;;
18046;SDS011;9148;51.454;13.862;2022-11-15T04:09:53;15.77;;;10.90;;
18046;SDS011;9148;51.454;13.862;2022-11-15T04:12:29;14.47;;;12.17;;
18046;SDS011;9148;51.454;13.862;2022-11-15T04:15:03;14.53;;;10.07;;
18046;SDS011;9148;51.454;13.862;2022-11-15T04:17:37;23.33;;;12.97;;
18046;SDS011;9148;51.454;13.862;2022-11-15T04:20:08;17.97;;;12.97;;
18046;SDS011;9148;51.454;13.862;2022-11-15T04:23:03;15.03;;;10.20;;
18046;SDS011;9148;51.454;13.862;2022-11-15T04:25:55;15.17;;;10.33;;
18046;SDS011;9148;51.454;13.862;2022-11-15T04:28:25;14.60;;;10.40;;
18046;SDS011;9148;51.454;13.862;2022-11-15T04:30:50;19.97;;;12.97;;
18046;SDS011;9148;51.454;13.862;2022-11-15T04:33:16;14.03;;;11.60;;
18046;SDS011;9148;51.454;13.862;2022-11-15T04:35:42;15.57;;;11.80;;
18046;SDS011;9148;51.454;13.862;2022-11-15T04:38:09;17.90;;;12.27;;
18046;SDS011;9148;51.454;13.862;2022-11-15T04:40:36;20.80;;;12.93;;
18046;SDS011;9148;51.454;13.862;2022-11-15T04:43:02;12.93;;;9.97;;
18046;SDS011;9148;51.454;13.862;2022-11-15T04:45:29;20.10;;;12.73;;
18046;SDS011;9148;51.454;13.862;2022-11-15T04:47:55;19.17;;;12.63;;
18046;SDS011;9148;51.454;13.862;2022-11-15T04:50:20;16.93;;;11.93;;
18046;SDS011;9148;51.454;13.862;2022-11-15T04:52:50;20.47;;;11.80;;
18046;SDS011;9148;51.454;13.862;2022-11-15T04:55:18;14.57;;;10.57;;
18046;SDS011;9148;51.454;13.862;2022-11-15T04:57:44;18.57;;;11.47;;
18046;SDS011;9148;51.454;13.862;2022-11-15T05:00:11;12.43;;;9.90;;
18046;SDS011;9148;51.454;13.862;2022-11-15T05:02:40;22.10;;;12.30;;
18046;SDS011;9148;51.454;13.862;2022-11-15T05:05:24;13.83;;;9.53;;
18046;SDS011;9148;51.454;13.862;2022-11-15T05:07:50;13.47;;;8.70;;
18046;SDS011;9148;51.454;13.862;2022-11-15T05:10:16;17.43;;;11.40;;
18046;SDS011;9148;51.454;13.862;2022-11-15T05:12:42;16.33;;;11.03;;
18046;SDS011;9148;51.454;13.862;2022-11-15T05:15:08;19.40;;;11.40;;
18046;SDS011;9148;51.454;13.862;2022-11-15T05:17:34;15.40;;;11.03;;
18046;SDS011;9148;51.454;13.862;2022-11-15T05:20:00;14.07;;;11.17;;
18046;SDS011;9148;51.454;13.862;2022-11-15T05:22:25;12.83;;;9.37;;
18046;SDS011;9148;51.454;13.862;2022-11-15T05:24:52;15.90;;;9.27;;
18046;SDS011;9148;51.454;13.862;2022-11-15T05:27:17;16.30;;;11.03;;
18046;SDS011;9148;51.454;13.862;2022-11-15T05:29:43;11.70;;;8.40;;
18046;SDS011;9148;51.454;13.862;2022-11-15T05:32:09;13.03;;;9.23;;
18046;SDS011;9148;51.454;13.862;2022-11-15T05:34:36;17.17;;;10.90;;
18046;SDS011;9148;51.454;13.862;2022-11-15T05:37:02;14.57;;;10.80;;
18046;SDS011;9148;51.454;13.862;2022-11-15T05:39:28;14.53;;;8.80;;
18046;SDS011;9148;51.454;13.862;2022-11-15T05:41:59;13.73;;;8.77;;
18046;SDS011;9148;51.454;13.862;2022-11-15T05:44:41;13.17;;;8.60;;
18046;SDS011;9148;51.454;13.862;2022-11-15T05:47:14;13.40;;;9.43;;
18046;SDS011;9148;51.454;13.862;2022-11-15T05:49:48;19.73;;;9.93;;
18046;SDS011;9148;51.454;13.862;2022-11-15T05:52:19;19.13;;;9.87;;
18046;SDS011;9148;51.454;13.862;2022-11-15T05:54:48;16.07;;;9.40;;
18046;SDS011;9148;51.454;13.862;2022-11-15T05:57:15;17.80;;;9.50;;
18046;SDS011;9148;51.454;13.862;2022-11-15T05:59:41;15.57;;;9.97;;
18046;SDS011;9148;51.454;13.862;2022-11-15T06:02:08;12.03;;;9.67;;
18046;SDS011;9148;51.454;13.862;2022-11-15T06:04:34;17.80;;;10.47;;
18046;SDS011;9148;51.454;13.862;2022-11-15T06:07:00;15.00;;;9.77;;
18046;SDS011;9148;51.454;13.862;2022-11-15T06:09:26;13.20;;;9.47;;
18046;SDS011;9148;51.454;13.862;2022-11-15T06:11:52;11.30;;;9.13;;
18046;SDS011;9148;51.454;13.862;2022-11-15T06:14:17;14.43;;;10.17;;
18046;SDS011;9148;51.454;13.862;2022-11-15T06:16:43;15.43;;;10.53;;
18046;SDS011;9148;51.454;13.862;2022-11-15T06:19:09;15.57;;;10.73;;
18046;SDS011;9148;51.454;13.862;2022-11-15T06:21:35;15.07;;;9.40;;
18046;SDS011;9148;51.454;13.862;2022-11-15T06:24:00;17.40;;;12.37;;
18046;SDS011;9148;51.454;13.862;2022-11-15T06:26:26;19.33;;;9.83;;
18046;SDS011;9148;51.454;13.862;2022-11-15T06:28:52;14.20;;;10.17;;
18046;SDS011;9148;51.454;13.862;2022-11-15T06:31:17;13.63;;;10.43;;
18046;SDS011;9148;51.454;13.862;2022-11-15T06:33:43;11.50;;;8.47;;
18046;SDS011;9148;51.454;13.862;2022-11-15T06:36:10;14.70;;;10.80;;
18046;SDS011;9148;51.454;13.862;2022-11-15T06:38:41;20.00;;;11.13;;
18046;SDS011;9148;51.454;13.862;2022-11-15T06:41:08;17.77;;;11.37;;
18046;SDS011;9148;51.454;13.862;2022-11-15T06:43:35;14.27;;;11.40;;
18046;SDS011;9148;51.454;13.862;2022-11-15T06:46:02;13.07;;;11.50;;
18046;SDS011;9148;51.454;13.862;2022-11-15T06:48:29;12.53;;;9.70;;
18046;SDS011;9148;51.454;13.862;2022-11-15T06:50:57;18.33;;;12.57;;
18046;SDS011;9148;51.454;13.862;2022-11-15T06:53:25;15.40;;;11.40;;
18046;SDS011;9148;51.454;13.862;2022-11-15T06:55:51;17.53;;;12.23;;
18046;SDS011;9148;51.454;13.862;2022-11-15T06:58:17;16.10;;;11.00;;
18046;SDS011;9148;51.454;13.862;2022-11-15T07:00:43;17.67;;;12.90;;
18046;SDS011;9148;51.454;13.862;2022-11-15T07:03:09;19.80;;;12.30;;
18046;SDS011;9148;51.454;13.862;2022-11-15T07:05:35;17.23;;;11.07;;
18046;SDS011;9148;51.454;13.862;2022-11-15T07:08:01;15.93;;;11.33;;
18046;SDS011;9148;51.454;13.862;2022-11-15T07:10:27;16.87;;;9.80;;
18046;SDS011;9148;51.454;13.862;2022-11-15T07:12:54;15.57;;;10.93;;
18046;SDS011;9148;51.454;13.862;2022-11-15T07:15:21;15.43;;;11.13;;
18046;SDS011;9148;51.454;13.862;2022-11-15T07:17:49;12.97;;;9.00;;
18046;SDS011;9148;51.454;13.862;2022-11-15T07:20:15;15.43;;;8.43;;
18046;SDS011;9148;51.454;13.862;2022-11-15T07:22:42;11.47;;;9.07;;
18046;SDS011;9148;51.454;13.862;2022-11-15T07:25:10;14.67;;;9.60;;
18046;SDS011;9148;51.454;13.862;2022-11-15T07:27:36;11.80;;;7.13;;
18046;SDS011;9148;51.454;13.862;2022-11-15T07:30:02;10.50;;;8.00;;
18046;SDS011;9148;51.454;13.862;2022-11-15T07:32:29;11.23;;;8.47;;
18046;SDS011;9148;51.454;13.862;2022-11-15T07:34:55;9.37;;;7.23;;
18046;SDS011;9148;51.454;13.862;2022-11-15T07:37:20;17.87;;;8.80;;
18046;SDS011;9148;51.454;13.862;2022-11-15T07:39:46;11.97;;;8.37;;
18046;SDS011;9148;51.454;13.862;2022-11-15T07:42:11;11.97;;;7.37;;
18046;SDS011;9148;51.454;13.862;2022-11-15T07:44:56;11.47;;;8.07;;
18046;SDS011;9148;51.454;13.862;2022-11-15T07:47:21;10.87;;;7.83;;
18046;SDS011;9148;51.454;13.862;2022-11-15T07:49:47;16.37;;;9.50;;
18046;SDS011;9148;51.454;13.862;2022-11-15T07:52:13;20.03;;;11.30;;
18046;SDS011;9148;51.454;13.862;2022-11-15T07:54:39;15.53;;;9.83;;
18046;SDS011;9148;51.454;13.862;2022-11-15T07:57:04;21.87;;;13.73;;
18046;SDS011;9148;51.454;13.862;2022-11-15T07:59:31;25.20;;;15.30;;
18046;SDS011;9148;51.454;13.862;2022-11-15T08:01:57;23.87;;;14.27;;
18046;SDS011;9148;51.454;13.862;2022-11-15T08:04:23;14.50;;;9.67;;
18046;SDS011;9148;51.454;13.862;2022-11-15T08:06:49;16.33;;;11.30;;
18046;SDS011;9148;51.454;13.862;2022-11-15T08:09:14;14.00;;;8.07;;
18046;SDS011;9148;51.454;13.862;2022-11-15T08:11:40;16.00;;;8.80;;
18046;SDS011;9148;51.454;13.862;2022-11-15T08:14:05;16.10;;;9.97;;
18046;SDS011;9148;51.454;13.862;2022-11-15T08:16:31;10.70;;;8.10;;
18046;SDS011;9148;51.454;13.862;2022-11-15T08:18:57;12.23;;;9.13;;
18046;SDS011;9148;51.454;13.862;2022-11-15T08:21:23;9.50;;;7.23;;
18046;SDS011;9148;51.454;13.862;2022-11-15T08:23:48;11.70;;;7.27;;
18046;SDS011;9148;51.454;13.862;2022-11-15T08:26:14;12.20;;;7.60;;
18046;SDS011;9148;51.454;13.862;2022-11-15T08:28:40;8.43;;;7.17;;
18046;SDS011;9148;51.454;13.862;2022-11-15T08:31:06;14.03;;;7.47;;
18046;SDS011;9148;51.454;13.862;2022-11-15T08:33:32;10.93;;;7.10;;
18046;SDS011;9148;51.454;13.862;2022-11-15T08:35:59;12.17;;;6.87;;
18046;SDS011;9148;51.454;13.862;2022-11-15T08:38:25;12.13;;;8.30;;
18046;SDS011;9148;51.454;13.862;2022-11-15T08:40:54;10.43;;;6.93;;
18046;SDS011;9148;51.454;13.862;2022-11-15T08:43:26;7.10;;;5.70;;
18046;SDS011;9148;51.454;13.862;2022-11-15T08:45:55;11.05;;;7.53;;
18046;SDS011;9148;51.454;13.862;2022-11-15T08:48:21;8.98;;;6.47;;
18046;SDS011;9148;51.454;13.862;2022-11-15T08:50:47;12.07;;;6.38;;
18046;SDS011;9148;51.454;13.862;2022-11-15T08:53:13;9.13;;;6.57;;
18046;SDS011;9148;51.454;13.862;2022-11-15T08:55:39;10.38;;;6.32;;
18046;SDS011;9148;51.454;13.862;2022-11-15T08:58:05;9.48;;;6.35;;
18046;SDS011;9148;51.454;13.862;2022-11-15T09:00:32;8.02;;;5.95;;
18046;SDS011;9148;51.454;13.862;2022-11-15T09:02:58;8.48;;;5.32;;
18046;SDS011;9148;51.454;13.862;2022-11-15T09:05:24;10.68;;;6.57;;
18046;SDS011;9148;51.454;13.862;2022-11-15T09:07:53;6.82;;;5.40;;
18046;SDS011;9148;51.454;13.862;2022-11-15T09:10:19;6.93;;;6.10;;
18046;SDS011;9148;51.454;13.862;2022-11-15T09:12:46;8.20;;;5.65;;
18046;SDS011;9148;51.454;13.862;2022-11-15T09:15:13;9.48;;;5.97;;
18046;SDS011;9148;51.454;13.862;2022-11-15T09:17:40;9.15;;;5.93;;
18046;SDS011;9148;51.454;13.862;2022-11-15T09:20:07;8.43;;;5.43;;
18046;SDS011;9148;51.454;13.862;2022-11-15T09:22:33;9.60;;;5.80;;
18046;SDS011;9148;51.454;13.862;2022-11-15T09:24:59;9.90;;;5.78;;
18046;SDS011;9148;51.454;13.862;2022-11-15T09:27:29;8.45;;;4.57;;
18046;SDS011;9148;51.454;13.862;2022-11-15T09:29:55;8.27;;;5.88;;
18046;SDS011;9148;51.454;13.862;2022-11-15T09:32:21;8.43;;;5.10;;
18046;SDS011;9148;51.454;13.862;2022-11-15T09:34:48;7.70;;;4.68;;
18046;SDS011;9148;51.454;13.862;2022-11-15T09:37:16;10.70;;;5.47;;
18046;SDS011;9148;51.454;13.862;2022-11-15T09:39:42;9.20;;;5.72;;
18046;SDS011;9148;51.454;13.862;2022-11-15T09:50:28;10.43;;;5.18;;
18046;SDS011;9148;51.454;13.862;2022-11-15T09:53:09;9.35;;;5.38;;
18046;SDS011;9148;51.454;13.862;2022-11-15T09:55:42;4.75;;;4.15;;
18046;SDS011;9148;51.454;13.862;2022-11-15T09:58:33;5.55;;;4.20;;
18046;SDS011;9148;51.454;13.862;2022-11-15T10:01:06;6.75;;;4.35;;
18046;SDS011;9148;51.454;13.862;2022-11-15T10:03:49;8.52;;;4.63;;
18046;SDS011;9148;51.454;13.862;2022-11-15T10:06:25;8.02;;;4.93;;
18046;SDS011;9148;51.454;13.862;2022-11-15T10:09:01;5.45;;;4.35;;
18046;SDS011;9148;51.454;13.862;2022-11-15T10:11:37;6.20;;;3.95;;
18046;SDS011;9148;51.454;13.862;2022-11-15T10:14:08;7.88;;;4.38;;
18046;SDS011;9148;51.454;13.862;2022-11-15T10:22:30;7.25;;;4.25;;
18046;SDS011;9148;51.454;13.862;2022-11-15T10:27:58;8.32;;;4.07;;
18046;SDS011;9148;51.454;13.862;2022-11-15T10:30:39;8.00;;;4.07;;
18046;SDS011;9148;51.454;13.862;2022-11-15T10:33:12;4.57;;;3.58;;
18046;SDS011;9148;51.454;13.862;2022-11-15T10:44:41;7.53;;;3.97;;
18046;SDS011;9148;51.454;13.862;2022-11-15T10:46:41;6.55;;;4.00;;
18046;SDS011;9148;51.454;13.862;2022-11-15T10:51:46;6.97;;;4.18;;
18046;SDS011;9148;51.454;13.862;2022-11-15T10:54:17;6.53;;;3.72;;
18046;SDS011;9148;51.454;13.862;2022-11-15T10:56:53;5.35;;;3.53;;
18046;SDS011;9148;51.454;13.862;2022-11-15T10:59:24;5.10;;;3.70;;
18046;SDS011;9148;51.454;13.862;2022-11-15T11:01:57;5.10;;;4.00;;
18046;SDS011;9148;51.454;13.862;2022-11-15T11:04:23;4.88;;;3.40;;
18046;SDS011;9148;51.454;13.862;2022-11-15T11:06:56;7.57;;;4.53;;
18046;SDS011;9148;51.454;13.862;2022-11-15T11:09:34;4.65;;;3.15;;
18046;SDS011;9148;51.454;13.862;2022-11-15T11:12:09;3.97;;;2.90;;
18046;SDS011;9148;51.454;13.862;2022-11-15T11:14:37;4.13;;;3.15;;
18046;SDS011;9148;51.454;13.862;2022-11-15T11:23:00;5.32;;;3.25;;
18046;SDS011;9148;51.454;13.862;2022-11-15T11:28:45;3.17;;;2.50;;
18046;SDS011;9148;51.454;13.862;2022-11-15T11:43:19;2.63;;;2.35;;
18046;SDS011;9148;51.454;13.862;2022-11-15T11:49:09;6.75;;;3.25;;
18046;SDS011;9148;51.454;13.862;2022-11-15T11:51:44;3.33;;;2.90;;
18046;SDS011;9148;51.454;13.862;2022-11-15T11:57:16;3.42;;;3.00;;
18046;SDS011;9148;51.454;13.862;2022-11-15T11:59:53;7.00;;;3.08;;
18046;SDS011;9148;51.454;13.862;2022-11-15T12:02:39;3.83;;;2.50;;
18046;SDS011;9148;51.454;13.862;2022-11-15T12:07:42;3.85;;;2.72;;
18046;SDS011;9148;51.454;13.862;2022-11-15T12:10:22;3.28;;;2.40;;
18046;SDS011;9148;51.454;13.862;2022-11-15T12:15:53;5.38;;;3.38;;
18046;SDS011;9148;51.454;13.862;2022-11-15T12:18:27;4.53;;;2.45;;
18046;SDS011;9148;51.454;13.862;2022-11-15T12:20:55;4.10;;;2.90;;
18046;SDS011;9148;51.454;13.862;2022-11-15T12:23:32;4.10;;;2.78;;
18046;SDS011;9148;51.454;13.862;2022-11-15T12:26:09;4.35;;;2.60;;
18046;SDS011;9148;51.454;13.862;2022-11-15T12:28:44;2.47;;;2.28;;
18046;SDS011;9148;51.454;13.862;2022-11-15T12:34:00;7.30;;;3.25;;
18046;SDS011;9148;51.454;13.862;2022-11-15T12:36:37;5.15;;;3.58;;
18046;SDS011;9148;51.454;13.862;2022-11-15T12:39:06;5.25;;;2.80;;
18046;SDS011;9148;51.454;13.862;2022-11-15T12:41:43;3.88;;;2.45;;
18046;SDS011;9148;51.454;13.862;2022-11-15T12:47:21;4.65;;;2.75;;
18046;SDS011;9148;51.454;13.862;2022-11-15T12:49:50;5.30;;;2.22;;
18046;SDS011;9148;51.454;13.862;2022-11-15T12:52:16;3.40;;;2.30;;
18046;SDS011;9148;51.454;13.862;2022-11-15T12:59:50;4.75;;;2.95;;
18046;SDS011;9148;51.454;13.862;2022-11-15T13:12:52;5.38;;;2.80;;
18046;SDS011;9148;51.454;13.862;2022-11-15T13:15:30;8.43;;;3.20;;
18046;SDS011;9148;51.454;13.862;2022-11-15T13:18:34;4.60;;;3.40;;
18046;SDS011;9148;51.454;13.862;2022-11-15T13:21:03;6.90;;;2.97;;
18046;SDS011;9148;51.454;13.862;2022-11-15T13:24:02;5.55;;;3.15;;
18046;SDS011;9148;51.454;13.862;2022-11-15T13:26:28;5.32;;;2.70;;
18046;SDS011;9148;51.454;13.862;2022-11-15T13:28:54;4.32;;;2.83;;
18046;SDS011;9148;51.454;13.862;2022-11-15T13:31:36;4.10;;;3.10;;
18046;SDS011;9148;51.454;13.862;2022-11-15T13:34:25;5.50;;;3.13;;
18046;SDS011;9148;51.454;13.862;2022-11-15T13:36:55;3.17;;;2.20;;
18046;SDS011;9148;51.454;13.862;2022-11-15T13:39:29;4.75;;;2.78;;
18046;SDS011;9148;51.454;13.862;2022-11-15T13:41:58;5.22;;;2.78;;
18046;SDS011;9148;51.454;13.862;2022-11-15T13:44:26;3.78;;;2.53;;
18046;SDS011;9148;51.454;13.862;2022-11-15T13:47:06;2.78;;;2.28;;
18046;SDS011;9148;51.454;13.862;2022-11-15T13:49:39;3.35;;;2.15;;
18046;SDS011;9148;51.454;13.862;2022-11-15T13:52:06;4.00;;;2.38;;
18046;SDS011;9148;51.454;13.862;2022-11-15T13:54:41;5.55;;;2.78;;
18046;SDS011;9148;51.454;13.862;2022-11-15T13:57:24;3.60;;;2.35;;
18046;SDS011;9148;51.454;13.862;2022-11-15T14:00:06;3.03;;;2.47;;
18046;SDS011;9148;51.454;13.862;2022-11-15T14:02:56;4.22;;;2.15;;
18046;SDS011;9148;51.454;13.862;2022-11-15T14:05:30;3.70;;;2.72;;
18046;SDS011;9148;51.454;13.862;2022-11-15T14:07:57;3.83;;;2.22;;
18046;SDS011;9148;51.454;13.862;2022-11-15T14:10:37;5.97;;;1.77;;
18046;SDS011;9148;51.454;13.862;2022-11-15T14:13:09;5.38;;;2.15;;
18046;SDS011;9148;51.454;13.862;2022-11-15T14:16:07;3.63;;;2.55;;
18046;SDS011;9148;51.454;13.862;2022-11-15T14:18:40;4.63;;;2.65;;
18046;SDS011;9148;51.454;13.862;2022-11-15T14:21:16;4.72;;;2.83;;
18046;SDS011;9148;51.454;13.862;2022-11-15T14:23:43;2.92;;;2.65;;
18046;SDS011;9148;51.454;13.862;2022-11-15T14:29:21;3.33;;;3.03;;
18046;SDS011;9148;51.454;13.862;2022-11-15T14:31:51;5.50;;;2.75;;
18046;SDS011;9148;51.454;13.862;2022-11-15T14:34:18;3.70;;;2.97;;
18046;SDS011;9148;51.454;13.862;2022-11-15T14:36:46;6.15;;;3.05;;
18046;SDS011;9148;51.454;13.862;2022-11-15T14:39:12;4.50;;;2.65;;
18046;SDS011;9148;51.454;13.862;2022-11-15T14:41:37;4.47;;;2.70;;
18046;SDS011;9148;51.454;13.862;2022-11-15T14:44:03;4.03;;;2.78;;
18046;SDS011;9148;51.454;13.862;2022-11-15T14:46:30;5.47;;;3.78;;
18046;SDS011;9148;51.454;13.862;2022-11-15T14:48:56;6.25;;;3.50;;
18046;SDS011;9148;51.454;13.862;2022-11-15T14:51:22;7.25;;;3.95;;
18046;SDS011;9148;51.454;13.862;2022-11-15T14:53:48;6.03;;;3.65;;
18046;SDS011;9148;51.454;13.862;2022-11-15T14:56:14;5.68;;;3.33;;
18046;SDS011;9148;51.454;13.862;2022-11-15T14:58:41;3.60;;;2.88;;
18046;SDS011;9148;51.454;13.862;2022-11-15T15:01:40;4.43;;;3.07;;
18046;SDS011;9148;51.454;13.862;2022-11-15T15:03:59;4.63;;;3.08;;
18046;SDS011;9148;51.454;13.862;2022-11-15T15:06:25;4.00;;;3.27;;
18046;SDS011;9148;51.454;13.862;2022-11-15T15:08:51;4.23;;;3.27;;
18046;SDS011;9148;51.454;13.862;2022-11-15T15:11:19;8.70;;;4.90;;
18046;SDS011;9148;51.454;13.862;2022-11-15T15:13:48;5.37;;;4.00;;
18046;SDS011;9148;51.454;13.862;2022-11-15T15:16:14;4.87;;;4.03;;
18046;SDS011;9148;51.454;13.862;2022-11-15T15:18:39;5.53;;;3.50;;
18046;SDS011;9148;51.454;13.862;2022-11-15T15:21:18;4.60;;;4.13;;
18046;SDS011;9148;51.454;13.862;2022-11-15T15:23:52;5.13;;;4.03;;
18046;SDS011;9148;51.454;13.862;2022-11-15T15:26:19;5.07;;;3.90;;
18046;SDS011;9148;51.454;13.862;2022-11-15T15:28:45;3.90;;;3.07;;
18046;SDS011;9148;51.454;13.862;2022-11-15T15:31:13;7.03;;;4.10;;
18046;SDS011;9148;51.454;13.862;2022-11-15T15:33:39;6.50;;;4.03;;
18046;SDS011;9148;51.454;13.862;2022-11-15T15:36:08;5.23;;;3.73;;
18046;SDS011;9148;51.454;13.862;2022-11-15T15:38:39;5.43;;;2.73;;
18046;SDS011;9148;51.454;13.862;2022-11-15T15:41:10;8.07;;;3.70;;
18046;SDS011;9148;51.454;13.862;2022-11-15T15:43:36;4.83;;;3.20;;
18046;SDS011;9148;51.454;13.862;2022-11-15T15:46:02;5.30;;;3.30;;
18046;SDS011;9148;51.454;13.862;2022-11-15T15:48:28;6.07;;;4.90;;
18046;SDS011;9148;51.454;13.862;2022-11-15T15:50:53;4.97;;;3.30;;
18046;SDS011;9148;51.454;13.862;2022-11-15T15:53:19;6.53;;;3.23;;
18046;SDS011;9148;51.454;13.862;2022-11-15T15:55:45;6.03;;;4.67;;
18046;SDS011;9148;51.454;13.862;2022-11-15T15:58:10;5.57;;;4.23;;
18046;SDS011;9148;51.454;13.862;2022-11-15T16:00:36;6.67;;;4.27;;
18046;SDS011;9148;51.454;13.862;2022-11-15T16:03:02;9.43;;;4.90;;
18046;SDS011;9148;51.454;13.862;2022-11-15T16:05:28;4.90;;;3.23;;
18046;SDS011;9148;51.454;13.862;2022-11-15T16:07:54;5.37;;;4.13;;
18046;SDS011;9148;51.454;13.862;2022-11-15T16:10:22;3.57;;;2.80;;
18046;SDS011;9148;51.454;13.862;2022-11-15T16:12:50;4.67;;;2.97;;
18046;SDS011;9148;51.454;13.862;2022-11-15T16:15:17;4.57;;;4.07;;
18046;SDS011;9148;51.454;13.862;2022-11-15T16:17:46;3.47;;;3.17;;
18046;SDS011;9148;51.454;13.862;2022-11-15T16:23:07;7.00;;;4.20;;
18046;SDS011;9148;51.454;13.862;2022-11-15T16:25:40;6.97;;;3.60;;
18046;SDS011;9148;51.454;13.862;2022-11-15T16:28:16;7.50;;;5.10;;
18046;SDS011;9148;51.454;13.862;2022-11-15T16:30:49;6.37;;;4.13;;
18046;SDS011;9148;51.454;13.862;2022-11-15T16:33:28;5.33;;;3.37;;
18046;SDS011;9148;51.454;13.862;2022-11-15T16:35:54;17.23;;;10.57;;
18046;SDS011;9148;51.454;13.862;2022-11-15T16:38:20;9.60;;;6.03;;
18046;SDS011;9148;51.454;13.862;2022-11-15T16:40:45;10.40;;;6.77;;
18046;SDS011;9148;51.454;13.862;2022-11-15T16:43:11;13.67;;;5.97;;
18046;SDS011;9148;51.454;13.862;2022-11-15T16:45:37;12.50;;;8.43;;